createdAt,value
2023-01-11T00:03:01.563Z,100347.25
2023-01-11T00:06:04.889Z,100341.81
2023-01-11T00:09:07.026Z,100345.13
2023-01-11T00:12:12.293Z,100335.88
2023-01-11T00:15:15.392Z,100361.69
2023-01-11T00:18:17.544Z,100340.34
2023-01-11T00:21:19.927Z,100349.22
2023-01-11T00:24:22.154Z,100341.00
2023-01-11T00:27:24.314Z,100327.94
2023-01-11T00:30:26.499Z,100318.66
2023-01-11T00:33:28.704Z,100336.09
2023-01-11T00:36:30.814Z,100322.63
2023-01-11T00:39:32.930Z,100337.47
2023-01-11T00:42:53.818Z,100347.03
2023-01-11T00:46:17.039Z,100355.19
2023-01-11T00:49:19.249Z,100363.25
2023-01-11T00:52:21.436Z,100360.91
2023-01-11T00:55:23.941Z,100371.38
2023-01-11T00:58:26.085Z,100375.16
2023-01-11T01:01:28.231Z,100370.66
2023-01-11T01:04:30.470Z,100367.03
2023-01-11T01:07:32.599Z,100379.81
2023-01-11T01:10:34.743Z,100383.38
2023-01-11T01:13:55.516Z,100385.97
2023-01-11T01:17:01.544Z,100393.47
2023-01-11T01:20:04.412Z,100416.34
2023-01-11T01:23:06.553Z,100410.38
2023-01-11T01:26:08.752Z,100398.06
2023-01-11T01:29:11.816Z,100414.00
2023-01-11T01:32:13.983Z,100407.97
2023-01-11T01:35:16.133Z,100402.03
2023-01-11T01:38:18.230Z,100408.53
2023-01-11T01:41:20.657Z,100403.75
2023-01-11T01:44:47.478Z,100418.53
2023-01-11T01:47:55.524Z,100410.84
2023-01-11T01:51:00.246Z,100405.69
2023-01-11T01:54:06.350Z,100407.25
2023-01-11T01:57:15.929Z,100407.53
2023-01-11T02:00:18.465Z,100412.44
2023-01-11T02:03:25.587Z,100427.63
2023-01-11T02:06:27.836Z,100409.44
2023-01-11T02:09:39.198Z,100436.69
2023-01-11T02:13:00.999Z,100437.75
2023-01-11T02:16:09.438Z,100431.50
2023-01-11T02:19:30.788Z,100417.63
2023-01-11T02:22:45.272Z,100425.69
2023-01-11T02:26:25.138Z,100433.91
2023-01-11T02:29:38.144Z,100424.59
2023-01-11T02:32:49.393Z,100417.84
2023-01-11T02:36:24.475Z,100424.56
2023-01-11T02:39:32.477Z,100428.47
2023-01-11T02:43:19.439Z,100429.41
2023-01-11T02:46:42.541Z,100430.16
2023-01-11T02:50:11.176Z,100444.94
2023-01-11T02:53:17.246Z,100451.50
2023-01-11T02:56:23.217Z,100446.03
2023-01-11T02:59:31.298Z,100447.00
2023-01-11T03:02:33.550Z,100450.38
2023-01-11T03:05:40.112Z,100450.75
2023-01-11T03:09:19.004Z,100469.78
2023-01-11T03:12:57.618Z,100453.09
2023-01-11T03:16:21.138Z,100469.44
2023-01-11T03:19:39.919Z,100481.72
2023-01-11T03:23:07.237Z,100455.91
2023-01-11T03:26:18.153Z,100486.75
2023-01-11T03:29:20.182Z,100486.66
2023-01-11T03:32:29.775Z,100458.75
2023-01-11T03:35:51.233Z,100454.78
2023-01-11T03:39:19.315Z,100478.34
2023-01-11T03:42:22.036Z,100479.97
2023-01-11T03:45:25.585Z,100481.94
2023-01-11T03:48:32.382Z,100456.38
2023-01-11T03:51:46.211Z,100440.59
2023-01-11T03:54:48.942Z,100432.22
2023-01-11T03:57:52.296Z,100445.81
2023-01-11T04:00:58.078Z,100433.56
2023-01-11T04:04:00.483Z,100436.41
2023-01-11T04:07:02.587Z,100435.38
2023-01-11T04:10:05.243Z,100459.75
2023-01-11T04:13:07.413Z,100450.63
2023-01-11T04:16:09.602Z,100445.97
2023-01-11T04:19:11.815Z,100452.88
2023-01-11T04:22:16.961Z,100462.09
2023-01-11T04:25:19.097Z,100452.09
2023-01-11T04:28:21.302Z,100431.97
2023-01-11T04:31:23.454Z,100439.75
2023-01-11T04:34:28.430Z,100464.00
2023-01-11T04:37:30.552Z,100479.84
2023-01-11T04:40:32.696Z,100488.59
2023-01-11T04:43:34.852Z,100515.69
2023-01-11T04:46:37.026Z,100506.63
2023-01-11T04:49:39.191Z,100501.31
2023-01-11T04:52:41.808Z,100488.78
2023-01-11T04:55:44.063Z,100489.63
2023-01-11T04:58:46.262Z,100490.03
2023-01-11T05:01:48.394Z,100499.16
2023-01-11T05:04:50.551Z,100502.13
2023-01-11T05:07:52.720Z,100476.22
2023-01-11T05:10:55.817Z,100499.84
2023-01-11T05:13:59.930Z,100505.50
2023-01-11T05:17:02.151Z,100491.00
2023-01-11T05:20:04.858Z,100500.38
2023-01-11T05:23:07.013Z,100493.25
2023-01-11T05:26:11.797Z,100503.47
2023-01-11T05:29:20.398Z,100494.84
2023-01-11T05:32:22.536Z,100502.94
2023-01-11T05:35:24.702Z,100489.91
2023-01-11T05:38:27.334Z,100489.16
2023-01-11T05:41:29.486Z,100490.66
2023-01-11T05:44:50.224Z,100496.09
2023-01-11T05:47:53.437Z,100492.53
2023-01-11T05:50:56.440Z,100499.13
2023-01-11T05:53:59.469Z,100479.50
2023-01-11T05:57:01.635Z,100448.00
2023-01-11T06:00:04.512Z,100457.44
2023-01-11T06:03:08.612Z,100478.00
2023-01-11T06:06:10.958Z,100464.38
2023-01-11T06:09:13.131Z,100480.00
2023-01-11T06:12:15.343Z,100478.78
2023-01-11T06:15:17.507Z,100458.91
2023-01-11T06:18:20.357Z,100434.06
2023-01-11T06:21:22.598Z,100442.34
2023-01-11T06:24:24.845Z,100495.28
2023-01-11T06:27:27.148Z,100494.03
2023-01-11T06:30:29.418Z,100470.91
2023-01-11T06:33:32.009Z,100465.81
2023-01-11T06:36:34.267Z,100497.44
2023-01-11T06:39:36.480Z,100500.88
2023-01-11T06:42:38.774Z,100497.84
2023-01-11T06:45:44.088Z,100494.41
2023-01-11T06:48:46.473Z,100501.13
2023-01-11T06:51:48.601Z,100489.97
2023-01-11T06:54:50.883Z,100520.34
2023-01-11T06:57:53.307Z,100532.78
2023-01-11T07:00:57.148Z,100542.19
2023-01-11T07:03:59.714Z,100551.56
2023-01-11T07:07:02.125Z,100552.44
2023-01-11T07:10:09.200Z,100558.63
2023-01-11T07:13:12.638Z,100571.56
2023-01-11T07:16:17.739Z,100570.53
2023-01-11T07:19:20.419Z,100552.63
2023-01-11T07:22:22.935Z,100576.44
2023-01-11T07:25:27.662Z,100540.59
2023-01-11T07:28:30.735Z,100559.81
2023-01-11T07:31:32.949Z,100569.47
2023-01-11T07:34:35.264Z,100550.44
2023-01-11T07:37:38.141Z,100581.34
2023-01-11T07:40:40.403Z,100575.13
2023-01-11T07:43:42.565Z,100573.25
2023-01-11T07:46:44.749Z,100571.44
2023-01-11T07:49:47.142Z,100568.09
2023-01-11T07:52:50.185Z,100566.97
2023-01-11T07:55:52.557Z,100564.31
2023-01-11T07:58:54.884Z,100580.69
2023-01-11T08:05:42.862Z,100596.59
2023-01-11T08:08:45.635Z,100584.91
2023-01-11T08:12:12.539Z,100583.31
2023-01-11T08:15:15.504Z,100593.50
2023-01-11T08:18:17.802Z,100574.75
2023-01-11T08:21:21.430Z,100576.38
2023-01-11T08:24:23.701Z,100593.66
2023-01-11T08:27:25.812Z,100598.19
2023-01-11T08:30:28.850Z,100594.25
2023-01-11T08:33:30.974Z,100598.38
2023-01-11T08:36:33.134Z,100598.81
2023-01-11T08:39:35.391Z,100593.66
2023-01-11T08:42:37.607Z,100578.25
2023-01-11T08:45:39.754Z,100589.28
2023-01-11T08:48:42.284Z,100597.34
2023-01-11T08:51:44.515Z,100589.31
2023-01-11T08:54:46.942Z,100584.38
2023-01-11T08:57:49.532Z,100588.63
2023-01-11T09:01:00.074Z,100608.66
2023-01-11T09:04:12.561Z,100613.25
2023-01-11T09:07:27.088Z,100601.78
2023-01-11T09:10:29.922Z,100604.28
2023-01-11T09:13:32.327Z,100590.22
2023-01-11T09:16:34.469Z,100595.75
2023-01-11T09:19:36.899Z,100608.13
2023-01-11T09:22:39.711Z,100602.03
2023-01-11T09:25:45.216Z,100589.16
2023-01-11T09:28:47.788Z,100587.78
2023-01-11T09:31:50.393Z,100598.66
2023-01-11T09:34:57.312Z,100562.63
2023-01-11T09:37:59.969Z,100587.53
2023-01-11T09:41:16.747Z,100593.09
2023-01-11T09:44:23.325Z,100587.19
2023-01-11T09:47:38.444Z,100595.75
2023-01-11T09:50:43.826Z,100587.38
2023-01-11T09:53:52.313Z,100582.84
2023-01-11T09:57:23.851Z,100576.53
2023-01-11T10:04:06.318Z,100569.16
2023-01-11T10:07:39.551Z,100564.84
2023-01-11T10:18:26.286Z,100562.19
2023-01-11T10:18:27.368Z,100558.91
2023-01-11T10:21:50.743Z,100546.22
2023-01-11T10:25:05.536Z,100543.53
2023-01-11T10:28:17.383Z,100551.28
2023-01-11T10:31:30.507Z,100538.34
2023-01-11T10:34:42.813Z,100552.00
2023-01-11T10:38:05.074Z,100557.16
2023-01-11T10:41:20.416Z,100552.69
2023-01-11T10:45:05.636Z,100553.81
2023-01-11T10:48:25.178Z,100549.59
2023-01-11T10:51:49.116Z,100567.13
2023-01-11T10:55:12.405Z,100520.13
2023-01-11T11:02:49.428Z,100542.84
2023-01-11T11:05:55.100Z,100547.63
2023-01-11T11:09:05.719Z,100527.00
2023-01-11T11:12:28.389Z,100528.53
2023-01-11T11:15:44.312Z,100522.78
2023-01-11T11:18:52.637Z,100511.53
2023-01-11T11:21:55.624Z,100507.59
2023-01-11T11:25:01.804Z,100516.63
2023-01-11T11:28:22.361Z,100515.53
2023-01-11T11:31:24.636Z,100505.91
2023-01-11T11:34:46.310Z,100503.41
2023-01-11T11:37:49.056Z,100445.00
2023-01-11T11:41:04.586Z,100510.41
2023-01-11T11:44:24.405Z,100484.63
2023-01-11T11:47:30.033Z,100489.03
2023-01-11T11:50:45.162Z,100506.84
2023-01-11T11:53:55.761Z,100514.00
2023-01-11T11:57:20.288Z,100467.38
2023-01-11T12:00:37.329Z,100489.09
2023-01-11T12:03:42.912Z,100502.16
2023-01-11T12:07:14.819Z,100500.91
2023-01-11T12:10:21.260Z,100484.91
2023-01-11T12:13:40.360Z,100486.78
2023-01-11T12:16:44.271Z,100490.00
2023-01-11T12:19:47.909Z,100497.50
2023-01-11T12:22:51.000Z,100491.50
2023-01-11T12:26:00.626Z,100509.53
2023-01-11T12:29:09.568Z,100498.31
2023-01-11T12:32:30.584Z,100512.38
2023-01-11T12:35:49.955Z,100510.22
2023-01-11T12:39:10.992Z,100512.63
2023-01-11T12:42:16.112Z,100519.13
2023-01-11T12:45:25.996Z,100509.66
2023-01-11T12:48:41.178Z,100508.19
2023-01-11T12:52:00.730Z,100507.50
2023-01-11T12:55:29.947Z,100504.78
2023-01-11T12:58:51.329Z,100500.44
2023-01-11T13:02:03.516Z,100491.78
2023-01-11T13:05:33.635Z,100496.06
2023-01-11T13:08:56.451Z,100495.06
2023-01-11T13:12:20.079Z,100494.72
2023-01-11T13:15:34.688Z,100492.06
2023-01-11T13:18:46.491Z,100493.16
2023-01-11T13:21:59.034Z,100502.09
2023-01-11T13:25:04.488Z,100492.84
2023-01-11T13:28:32.748Z,100501.56
2023-01-11T13:31:36.097Z,100498.53
2023-01-11T13:34:47.521Z,100498.59
2023-01-11T13:38:04.665Z,100508.34
2023-01-11T13:41:35.545Z,100522.88
2023-01-11T13:44:43.671Z,100533.13
2023-01-11T13:47:52.057Z,100535.59
2023-01-11T13:51:11.640Z,100537.22
2023-01-11T13:54:20.829Z,100516.13
2023-01-11T13:57:35.494Z,100508.56
2023-01-11T14:01:07.601Z,100514.78
2023-01-11T14:04:25.780Z,100511.00
2023-01-11T14:08:05.971Z,100515.28
2023-01-11T14:11:28.344Z,100511.22
2023-01-11T14:14:39.621Z,100511.22
2023-01-11T14:18:05.651Z,100498.72
2023-01-11T14:21:10.655Z,100495.06
2023-01-11T14:24:13.988Z,100491.09
2023-01-11T14:27:28.057Z,100483.66
2023-01-11T14:30:42.162Z,100496.09
2023-01-11T14:34:09.056Z,100502.03
2023-01-11T14:37:31.075Z,100505.81
2023-01-11T14:40:39.223Z,100506.69
2023-01-11T14:43:44.480Z,100500.47
2023-01-11T14:47:11.112Z,100485.72
2023-01-11T14:50:20.296Z,100489.22
2023-01-11T14:53:36.809Z,100492.16
2023-01-11T14:56:41.991Z,100494.72
2023-01-11T14:59:44.172Z,100498.53
2023-01-11T15:02:59.622Z,100489.63
2023-01-11T15:06:09.965Z,100491.03
2023-01-11T15:09:48.108Z,100495.13
2023-01-11T15:12:55.755Z,100498.91
2023-01-11T15:16:34.959Z,100497.13
2023-01-11T15:19:39.679Z,100495.88
2023-01-11T15:22:41.958Z,100505.13
2023-01-11T15:25:47.367Z,100506.00
2023-01-11T15:28:55.112Z,100512.81
2023-01-11T15:32:06.790Z,100505.97
2023-01-11T15:35:32.471Z,100508.84
2023-01-11T15:38:38.001Z,100510.97
2023-01-11T15:42:04.658Z,100514.09
2023-01-11T15:45:33.075Z,100512.44
2023-01-11T15:48:53.537Z,100510.84
2023-01-11T15:52:29.756Z,100511.06
2023-01-11T15:56:05.754Z,100512.72
2023-01-11T15:59:07.827Z,100519.72
2023-01-11T16:02:12.953Z,100513.16
2023-01-11T16:05:29.689Z,100509.25
2023-01-11T16:08:58.902Z,100506.41
2023-01-11T16:12:25.842Z,100508.69
2023-01-11T16:16:05.877Z,100509.13
2023-01-11T16:19:15.096Z,100506.47
2023-01-11T16:22:22.494Z,100514.03
2023-01-11T16:25:29.343Z,100513.25
2023-01-11T16:28:31.566Z,100515.28
2023-01-11T16:31:58.468Z,100505.44
2023-01-11T16:35:01.776Z,100500.53
2023-01-11T16:38:05.258Z,100487.66
2023-01-11T16:41:08.845Z,100504.84
2023-01-11T16:44:41.495Z,100513.22
2023-01-11T16:48:01.638Z,100502.00
2023-01-11T16:51:16.325Z,100508.94
2023-01-11T16:54:24.323Z,100509.16
2023-01-11T16:57:31.027Z,100507.09
2023-01-11T17:00:38.473Z,100500.53
2023-01-11T17:03:46.762Z,100513.81
2023-01-11T17:06:48.950Z,100514.19
2023-01-11T17:09:51.715Z,100504.19
2023-01-11T17:13:46.045Z,100517.66
2023-01-11T17:16:59.934Z,100512.94
2023-01-11T17:20:02.597Z,100514.75
2023-01-11T17:23:05.229Z,100512.38
2023-01-11T17:26:14.456Z,100513.50
2023-01-11T17:29:23.472Z,100503.13
2023-01-11T17:32:41.445Z,100507.44
2023-01-11T17:35:43.596Z,100506.88
2023-01-11T17:38:45.841Z,100514.63
2023-01-11T17:42:06.425Z,100511.72
2023-01-11T17:45:24.077Z,100518.50
2023-01-11T17:48:27.406Z,100529.38
2023-01-11T17:51:32.580Z,100529.78
2023-01-11T17:54:34.820Z,100529.56
2023-01-11T17:57:37.032Z,100523.25
2023-01-11T18:00:40.711Z,100518.72
2023-01-11T18:03:45.999Z,100533.69
2023-01-11T18:06:49.138Z,100530.78
2023-01-11T18:09:58.114Z,100538.94
2023-01-11T18:13:00.446Z,100543.22
2023-01-11T18:16:03.309Z,100541.00
2023-01-11T18:19:24.210Z,100543.84
2023-01-11T18:22:40.527Z,100529.22
2023-01-11T18:25:45.961Z,100550.13
2023-01-11T18:28:49.951Z,100559.44
2023-01-11T18:31:53.262Z,100547.34
2023-01-11T18:34:55.523Z,100552.22
2023-01-11T18:37:57.685Z,100547.28
2023-01-11T18:41:24.429Z,100551.13
2023-01-11T18:44:28.524Z,100571.72
2023-01-11T18:47:30.785Z,100566.06
2023-01-11T18:50:41.248Z,100579.91
2023-01-11T18:53:43.370Z,100567.59
2023-01-11T18:56:45.580Z,100557.13
2023-01-11T18:59:48.347Z,100582.66
2023-01-11T19:05:53.827Z,100583.69
2023-01-11T19:08:55.968Z,100567.78
2023-01-11T19:11:58.181Z,100581.63
2023-01-11T19:15:00.385Z,100560.72
2023-01-11T19:18:03.407Z,100565.81
2023-01-11T19:21:06.650Z,100574.78
2023-01-11T19:24:08.975Z,100589.94
2023-01-11T19:27:13.367Z,100589.94
2023-01-11T19:30:15.719Z,100589.47
2023-01-11T19:33:18.254Z,100585.22
2023-01-11T19:36:20.497Z,100593.38
2023-01-11T19:39:22.679Z,100596.91
2023-01-11T19:42:24.883Z,100586.28
2023-01-11T19:45:27.062Z,100613.94
2023-01-11T19:48:33.079Z,100618.91
2023-01-11T19:51:35.312Z,100621.31
2023-01-11T19:54:38.187Z,100620.00
2023-01-11T19:57:40.519Z,100615.16
2023-01-11T20:00:42.740Z,100609.34
2023-01-11T20:03:45.169Z,100624.19
2023-01-11T20:06:52.129Z,100593.59
2023-01-11T20:09:54.408Z,100618.09
2023-01-11T20:12:58.586Z,100621.56
2023-01-11T20:16:14.919Z,100620.25
2023-01-11T20:19:17.519Z,100611.66
2023-01-11T20:22:26.150Z,100615.50
2023-01-11T20:25:28.450Z,100607.59
2023-01-11T20:28:32.509Z,100618.91
2023-01-11T20:31:35.629Z,100602.16
2023-01-11T20:34:37.906Z,100601.38
2023-01-11T20:37:40.138Z,100607.16
2023-01-11T20:40:42.417Z,100587.63
2023-01-11T20:43:44.682Z,100596.13
2023-01-11T20:46:48.395Z,100601.97
2023-01-11T20:49:50.688Z,100607.06
2023-01-11T20:52:53.175Z,100621.94
2023-01-11T20:55:56.306Z,100619.06
2023-01-11T20:58:58.564Z,100617.13
2023-01-11T21:02:00.893Z,100627.09
2023-01-11T21:05:05.963Z,100612.97
2023-01-11T21:08:08.150Z,100644.44
2023-01-11T21:11:12.196Z,100650.38
2023-01-11T21:14:14.444Z,100642.72
2023-01-11T21:17:17.387Z,100614.50
2023-01-11T21:20:19.595Z,100620.25
2023-01-11T21:23:21.753Z,100641.78
2023-01-11T21:26:24.859Z,100637.44
2023-01-11T21:29:27.029Z,100620.81
2023-01-11T21:32:29.221Z,100654.69
2023-01-11T21:35:33.941Z,100603.19
2023-01-11T21:38:36.115Z,100642.53
2023-01-11T21:41:58.755Z,100658.47
2023-01-11T21:45:01.054Z,100656.41
2023-01-11T21:48:03.222Z,100661.53
2023-01-11T21:51:11.663Z,100659.63
2023-01-11T21:54:15.017Z,100657.78
2023-01-11T21:57:17.151Z,100652.66
2023-01-11T22:00:19.928Z,100660.78
2023-01-11T22:03:29.353Z,100663.00
2023-01-11T22:06:31.838Z,100669.78
2023-01-11T22:09:34.219Z,100664.84
2023-01-11T22:12:36.406Z,100646.03
2023-01-11T22:15:38.679Z,100663.38
2023-01-11T22:18:41.417Z,100669.84
2023-01-11T22:21:44.008Z,100662.13
2023-01-11T22:24:46.440Z,100623.50
2023-01-11T22:27:48.573Z,100637.69
2023-01-11T22:30:50.716Z,100657.72
2023-01-11T22:33:53.253Z,100662.81
2023-01-11T22:36:55.661Z,100642.66
2023-01-11T22:40:00.709Z,100666.84
2023-01-11T22:43:03.595Z,100684.31
2023-01-11T22:46:05.940Z,100689.53
2023-01-11T22:49:08.389Z,100676.47
2023-01-11T22:52:10.578Z,100676.34
2023-01-11T22:55:12.726Z,100660.72
2023-01-11T22:58:14.974Z,100667.50
2023-01-11T23:01:20.342Z,100687.69
2023-01-11T23:04:22.617Z,100687.03
2023-01-11T23:07:24.794Z,100677.91
2023-01-11T23:10:26.922Z,100676.28
2023-01-11T23:13:47.777Z,100674.69
2023-01-11T23:16:52.581Z,100671.75
2023-01-11T23:19:54.755Z,100669.22
2023-01-11T23:22:56.873Z,100664.19
2023-01-11T23:25:59.175Z,100647.47
2023-01-11T23:29:01.568Z,100679.34
2023-01-11T23:32:03.956Z,100672.25
2023-01-11T23:35:06.626Z,100660.78
2023-01-11T23:38:08.787Z,100670.06
2023-01-11T23:41:31.551Z,100682.72
2023-01-11T23:44:33.918Z,100662.81
2023-01-11T23:47:36.046Z,100659.47
2023-01-11T23:50:38.256Z,100671.69
2023-01-11T23:53:40.584Z,100672.53
2023-01-11T23:56:42.873Z,100684.84
2023-01-11T23:59:45.462Z,100694.31
